地図

経路データ

SID SEASON NUMBER BASIN SUBBASIN NAME ISO_TIME NATURE LAT LON WMO_WIND WMO_PRES WMO_AGENCY TRACK_TYPE DIST2LAND LANDFALL IFLAG USA_AGENCY USA_ATCF_ID USA_LAT USA_LON USA_RECORD USA_STATUS USA_WIND USA_PRES USA_SSHS USA_R34_NE USA_R34_SE USA_R34_SW USA_R34_NW USA_R50_NE USA_R50_SE USA_R50_SW USA_R50_NW USA_R64_NE USA_R64_SE USA_R64_SW USA_R64_NW USA_POCI USA_ROCI USA_RMW USA_EYE TOKYO_LAT TOKYO_LON TOKYO_GRADE TOKYO_WIND TOKYO_PRES TOKYO_R50_DIR TOKYO_R50_LONG TOKYO_R50_SHORT TOKYO_R30_DIR TOKYO_R30_LONG TOKYO_R30_SHORT TOKYO_LAND CMA_LAT CMA_LON CMA_CAT CMA_WIND CMA_PRES HKO_LAT HKO_LON HKO_CAT HKO_WIND HKO_PRES NEWDELHI_LAT NEWDELHI_LON NEWDELHI_GRADE NEWDELHI_WIND NEWDELHI_PRES NEWDELHI_CI NEWDELHI_DP NEWDELHI_POCI REUNION_LAT REUNION_LON REUNION_TYPE REUNION_WIND REUNION_PRES REUNION_TNUM REUNION_CI REUNION_RMW REUNION_R34_NE REUNION_R34_SE REUNION_R34_SW REUNION_R34_NW REUNION_R50_NE REUNION_R50_SE REUNION_R50_SW REUNION_R50_NW REUNION_R64_NE REUNION_R64_SE REUNION_R64_SW REUNION_R64_NW BOM_LAT BOM_LON BOM_TYPE BOM_WIND BOM_PRES BOM_TNUM BOM_CI BOM_RMW BOM_R34_NE BOM_R34_SE BOM_R34_SW BOM_R34_NW BOM_R50_NE BOM_R50_SE BOM_R50_SW BOM_R50_NW BOM_R64_NE BOM_R64_SE BOM_R64_SW BOM_R64_NW BOM_ROCI BOM_POCI BOM_EYE BOM_POS_METHOD BOM_PRES_METHOD NADI_LAT NADI_LON NADI_CAT NADI_WIND NADI_PRES WELLINGTON_LAT WELLINGTON_LON WELLINGTON_WIND WELLINGTON_PRES DS824_LAT DS824_LON DS824_STAGE DS824_WIND DS824_PRES TD9636_LAT TD9636_LON TD9636_STAGE TD9636_WIND TD9636_PRES TD9635_LAT TD9635_LON TD9635_WIND TD9635_PRES TD9635_ROCI NEUMANN_LAT NEUMANN_LON NEUMANN_CLASS NEUMANN_WIND NEUMANN_PRES MLC_LAT MLC_LON MLC_CLASS MLC_WIND MLC_PRES USA_GUST BOM_GUST BOM_GUST_PER REUNION_GUST REUNION_GUST_PER USA_SEAHGT USA_SEARAD_NE USA_SEARAD_SE USA_SEARAD_SW USA_SEARAD_NW STORM_SPEED STORM_DIR
1992314N08141 1992 122 WP MM FORREST 1992-11-08 12:00:00 NR 7.90000 140.700 main 1100 1086 O_____________ jtwc_wp WP301992 7.90000 140.700 15 -1 15 280
1992314N08141 1992 122 WP MM FORREST 1992-11-08 15:00:00 NR 8.03780 139.948 main 1081 1070 P_____________ WP301992 8.03780 139.948 15 -1 15 281
1992314N08141 1992 122 WP MM FORREST 1992-11-08 18:00:00 NR 8.20000 139.200 main 1072 1065 O_____________ jtwc_wp WP301992 8.20000 139.200 15 -1 15 284
1992314N08141 1992 122 WP MM FORREST 1992-11-08 21:00:00 NR 8.39981 138.457 main 1069 1062 P_____________ WP301992 8.39981 138.457 15 -1 15 285
1992314N08141 1992 122 WP MM FORREST 1992-11-09 00:00:00 NR 8.60000 137.700 main 1067 1063 O_____________ jtwc_wp WP301992 8.60000 137.700 15 -1 16 283
1992314N08141 1992 122 WP MM FORREST 1992-11-09 03:00:00 NR 8.76492 136.900 main 1074 1054 P_____________ WP301992 8.76492 136.900 17 -1 16 281
1992314N08141 1992 122 WP MM FORREST 1992-11-09 06:00:00 NR 8.90000 136.100 main 1054 979 O_____________ jtwc_wp WP301992 8.90000 136.100 20 -1 15 279
1992314N08141 1992 122 WP MM FORREST 1992-11-09 09:00:00 NR 9.00716 135.365 main 979 894 P_____________ WP301992 9.00716 135.365 20 -1 15 278
1992314N08141 1992 122 WP MM FORREST 1992-11-09 12:00:00 NR 9.10000 134.600 main 894 810 O_____________ jtwc_wp WP301992 9.10000 134.600 20 -1 17 277
1992314N08141 1992 122 WP MM FORREST 1992-11-09 15:00:00 NR 9.20009 133.700 main 799 705 P_____________ WP301992 9.20009 133.700 20 -1 18 276
1992314N08141 1992 122 WP MM FORREST 1992-11-09 18:00:00 NR 9.30000 132.800 main 705 634 O_____________ jtwc_wp WP301992 9.30000 132.800 20 -1 17 278
1992314N08141 1992 122 WP MM FORREST 1992-11-09 21:00:00 NR 9.42214 132.035 main 624 554 P_____________ WP301992 9.42214 132.035 20 -1 15 278
1992314N08141 1992 122 WP MM FORREST 1992-11-10 00:00:00 NR 9.50000 131.300 main 554 478 O_____________ jtwc_wp WP301992 9.50000 131.300 20 -1 15 272
1992314N08141 1992 122 WP MM FORREST 1992-11-10 03:00:00 NR 9.46482 130.515 main 468 379 P_____________ WP301992 9.46482 130.515 22 -1 16 266
1992314N08141 1992 122 WP MM FORREST 1992-11-10 06:00:00 NR 9.40000 129.700 main 379 293 O_____________ jtwc_wp WP301992 9.40000 129.700 25 -1 17 267
1992314N08141 1992 122 WP MM FORREST 1992-11-10 09:00:00 NR 9.39245 128.843 main 282 198 P_____________ WP301992 9.39245 128.843 25 -1 17 270
1992314N08141 1992 122 WP MM FORREST 1992-11-10 12:00:00 NR 9.40000 128.000 main 198 122 O_____________ jtwc_wp WP301992 9.40000 128.000 25 -1 16 270
1992314N08141 1992 122 WP MM FORREST 1992-11-10 15:00:00 NR 9.39229 127.227 main 112 39 P_____________ WP301992 9.39229 127.227 25 -1 15 270
1992314N08141 1992 122 WP MM FORREST 1992-11-10 18:00:00 NR 9.40000 126.500 main 39 0 O_____________ jtwc_wp WP301992 9.40000 126.500 25 -1 14 272
1992314N08141 1992 122 WP MM FORREST 1992-11-10 21:00:00 NR 9.43482 125.792 main 0 0 P_____________ WP301992 9.43482 125.792 25 -1 14 274
1992314N08141 1992 122 WP MM FORREST 1992-11-11 00:00:00 NR 9.50000 125.100 main 39 10 O_____________ jtwc_wp WP301992 9.50000 125.100 25 -1 14 276
1992314N08141 1992 122 WP MM FORREST 1992-11-11 03:00:00 NR 9.58481 124.407 main 10 0 P_____________ WP301992 9.58481 124.407 25 -1 14 278
1992314N08141 1992 122 WP MM FORREST 1992-11-11 06:00:00 NR 9.70000 123.700 main 15 0 O_____________ jtwc_wp WP301992 9.70000 123.700 25 -1 14 280
1992314N08141 1992 122 WP MM FORREST 1992-11-11 09:00:00 NR 9.84228 122.972 main 0 0 P_____________ WP301992 9.84228 122.972 25 -1 15 281
1992314N08141 1992 122 WP MM FORREST 1992-11-11 12:00:00 NR 10.0000 122.200 main 31 31 O_____________ jtwc_wp WP301992 10.0000 122.200 25 -1 16 281
1992314N08141 1992 122 WP MM FORREST 1992-11-11 15:00:00 NR 10.1573 121.372 main 59 59 P_____________ WP301992 10.1573 121.372 25 -1 17 280
1992314N08141 1992 122 WP MM FORREST 1992-11-11 18:00:00 NR 10.3000 120.500 main 90 10 O_____________ jtwc_wp WP301992 10.3000 120.500 25 -1 18 279
1992314N08141 1992 122 WP MM FORREST 1992-11-11 21:00:00 NR 10.4448 119.608 main 0 0 P_____________ WP301992 10.4448 119.608 25 -1 18 276
1992314N08141 1992 122 WP MM FORREST 1992-11-12 00:00:00 NR 10.5000 118.700 main 39 39 O_____________ jtwc_wp WP301992 10.5000 118.700 25 -1 18 269
1992314N08141 1992 122 WP MM FORREST 1992-11-12 03:00:00 NR 10.4023 117.792 main 109 105 P_____________ WP301992 10.4023 117.792 25 -1 20 246
1992314N08141 1992 122 WP MM FORREST 1992-11-12 06:00:00 TS 9.66000 116.820 main 117 109 O_O___________ jtwc_wp WP301992 10.2000 116.900 25 -1 7.50000 116.500 1 23 1005 23 238
1992314N08141 1992 122 WP MM FORREST 1992-11-12 09:00:00 TS 9.20665 115.855 main 167 167 P_P___________ WP301992 9.94223 116.042 27 -1 7.73550 115.480 1 26 1002 20 250
1992314N08141 1992 122 WP MM FORREST 1992-11-12 12:00:00 TS 8.97143 114.900 main 264 264 O_O___________ jtwc_wp WP301992 9.70000 115.200 30 -1 8.00000 114.500 1 29 1000 19 262
1992314N08141 1992 122 WP MM FORREST 1992-11-12 15:00:00 TS 8.93857 113.974 main 358 358 P_P___________ WP301992 9.56979 114.350 32 -1 8.30734 113.598 1 29 1000 17 269
1992314N08141 1992 122 WP MM FORREST 1992-11-12 18:00:00 TS 8.95556 113.189 1004 tokyo main 447 447 OOO___________ jtwc_wp WP301992 9.50000 113.500 35 0 8.20000 113.500 2 1004 0 0 0 8.60000 112.800 1 29 1000 15 274
1992314N08141 1992 122 WP MM FORREST 1992-11-12 21:00:00 TS 9.05661 112.436 main 452 400 PPP___________ WP301992 9.44990 112.635 37 0 8.67870 112.698 2 1004 0 0 8.85228 112.105 1 33 997 14 275
1992314N08141 1992 122 WP MM FORREST 1992-11-13 00:00:00 TS 9.08333 111.775 1004 tokyo main 400 352 OOOO__________ jtwc_wp WP301992 9.40000 111.800 40 0 9.00000 112.000 2 1004 0 0 0 9.00000 111.500 2 38 995 8.40000 112.100 TD 25 1000 13 270
1992314N08141 1992 122 WP MM FORREST 1992-11-13 03:00:00 TS 9.05210 111.142 35 1000 tokyo main 345 315 POPP__________ WP301992 9.31479 111.028 42 0 9.10000 111.400 3 35 1000 0 7 150 100 0 9.00241 110.920 2 38 995 8.53030 111.298 TD 25 1000 13 266
1992314N08141 1992 122 WP MM FORREST 1992-11-13 06:00:00 TS 9.00000 110.447 45 1000 tokyo main 308 277 OOOO__________ jtwc_wp WP301992 9.20000 110.300 45 0 9.20000 110.600 3 45 1000 0 7 150 100 0 8.90000 110.400 2 38 995 8.60000 110.500 TD 25 1000 14 263
1992314N08141 1992 122 WP MM FORREST 1992-11-13 09:00:00 TS 8.88767 109.731 main 271 250 PPPP__________ WP301992 9.07244 109.570 47 0 9.16835 109.712 3 45 1000 0 7 150 125 8.74994 109.920 2 38 995 8.55993 109.720 TD 25 1000 14 259
1992314N08141 1992 122 WP MM FORREST 1992-11-13 12:00:00 TS 8.72500 109.075 45 1000 tokyo main 254 244 OOOO__________ jtwc_wp WP301992 8.90000 108.900 50 0 9.00000 108.900 3 45 1000 0 9 150 150 0 8.60000 109.500 2 38 995 8.40000 109.000 TD 25 1000 12 252
1992314N08141 1992 122 WP MM FORREST 1992-11-13 15:00:00 TS 8.50543 108.549 main 248 227 PPPP__________ WP301992 8.65732 108.328 52 0 8.72965 108.355 3 45 1000 0 9 150 150 8.53490 109.143 2 38 995 8.09984 108.370 TD 27 997 11 246
1992314N08141 1992 122 WP MM FORREST 1992-11-13 18:00:00 TS 8.27500 108.075 45 1000 tokyo main 227 204 OOOO__________ jtwc_wp WP301992 8.40000 107.800 55 0 8.40000 107.900 3 45 1000 0 9 150 150 0 8.50000 108.800 2 38 995 7.80000 107.800 TD 30 995 10 247
1992314N08141 1992 122 WP MM FORREST 1992-11-13 21:00:00 TS 8.09738 107.579 main 204 184 PPPP__________ WP301992 8.18486 107.265 55 0 8.04743 107.365 3 45 1000 0 9 140 140 8.50234 108.445 2 38 995 7.65490 107.243 TD 30 995 11 252
1992314N08141 1992 122 WP MM FORREST 1992-11-14 00:00:00 TS 7.92000 106.987 45 1000 tokyo main 191 165 OOOO__________ jtwc_wp WP301992 8.00000 106.700 55 0 7.80000 106.800 3 45 1000 0 9 130 130 0 8.40000 108.000 2 38 995 7.60000 106.700 TD 30 995 13 256
1992314N08141 1992 122 WP MM FORREST 1992-11-14 03:00:00 TS 7.77995 106.331 main 157 130 PPPP__________ WP301992 7.82000 106.057 55 0 7.79722 106.253 3 45 1000 0 9 130 130 8.07034 107.397 2 38 995 7.57743 106.150 TD 30 995 14 262
1992314N08141 1992 122 WP MM FORREST 1992-11-14 06:00:00 TS 7.72308 105.623 45 1000 tokyo main 127 100 OOOO__________ jtwc_wp WP301992 7.70000 105.400 55 0 7.90000 105.600 3 45 1000 0 9 130 130 0 7.60000 106.700 2 38 995 7.60000 105.600 TD 30 995 15 269
1992314N08141 1992 122 WP MM FORREST 1992-11-14 09:00:00 TS 7.75672 104.848 main 101 101 PP_P__________ WP301992 7.66988 104.793 52 0 7.95786 104.693 3 45 1000 0 9 130 130 2 7.64240 105.058 TD 27 997 14 273
1992314N08141 1992 122 WP MM FORREST 1992-11-14 12:00:00 TS 7.80000 104.167 45 1000 tokyo main 126 126 OO_O__________ jtwc_wp WP301992 7.70000 104.200 50 0 8.00000 103.800 3 45 1000 0 9 130 130 0 7.70000 104.500 TD 25 1000 13 273
1992314N08141 1992 122 WP MM FORREST 1992-11-14 15:00:00 TS 7.83069 103.566 main 173 173 PP_P__________ WP301992 7.74250 103.578 50 0 8.00714 103.205 3 45 1000 0 9 130 130 7.74241 103.915 TD 27 997 12 273
1992314N08141 1992 122 WP MM FORREST 1992-11-14 18:00:00 TS 7.86667 103.000 45 1000 tokyo main 197 158 OO_O__________ jtwc_wp WP301992 7.80000 103.000 50 0 8.00000 102.700 3 45 1000 0 9 130 130 0 7.80000 103.300 TD 30 995 11 274
1992314N08141 1992 122 WP MM FORREST 1992-11-14 21:00:00 TS 7.90405 102.438 main 151 130 PP_P__________ WP301992 7.84223 102.565 52 0 7.98503 102.085 3 45 999 0 9 130 130 7.88490 102.665 TD 35 992 11 275
1992314N08141 1992 122 WP MM FORREST 1992-11-15 00:00:00 TS 7.96667 101.867 45 998 tokyo main 138 104 OO_O__________ jtwc_wp WP301992 7.90000 102.100 55 0 8.00000 101.500 3 45 998 0 9 130 130 0 8.00000 102.000 TS 40 990 12 278
1992314N08141 1992 122 WP MM FORREST 1992-11-15 03:00:00 TS 8.06321 101.272 main 104 45 PP_P__________ WP301992 7.98497 101.452 55 0 8.06232 101.042 3 45 997 0 9 130 130 8.14234 101.322 TS 42 990 12 281
1992314N08141 1992 122 WP MM FORREST 1992-11-15 06:00:00 TS 8.20000 100.633 45 996 tokyo main 34 0 OO_O__________ jtwc_wp WP301992 8.10000 100.700 55 0 8.20000 100.600 3 45 996 0 9 130 130 0 8.30000 100.600 TS 45 990 14 284
1992314N08141 1992 122 NI BB FORREST 1992-11-15 09:00:00 TS 8.38073 99.9417 main 0 0 PP_P__________ WP301992 8.24243 99.9150 55 0 8.44234 100.095 3 45 996 0 9 130 130 8.45743 99.8150 TS 45 990 15 284
1992314N08141 1992 122 NI BB FORREST 1992-11-15 12:00:00 TS 8.55455 99.1727 main 0 0 OO_O__________ jtwc_wp WP301992 8.40000 99.1000 55 0 8.70000 99.5000 3 45 996 0 9 130 130 0 8.60000 99.0000 TS 45 990 16 281
1992314N08141 1992 122 NI BB FORREST 1992-11-15 15:00:00 TS 8.67854 98.3420 main 0 0 PP_P__________ WP301992 8.54992 98.2850 55 0 8.87791 98.7850 3 45 996 0 9 130 130 8.70746 98.1775 TS 37 995 17 278
1992314N08141 1992 122 NI BB FORREST 1992-11-15 18:00:00 TS 8.77778 97.5111 main 87 87 OO_O__________ jtwc_wp WP301992 8.70000 97.5000 55 0 9.00000 98.0000 3 45 996 0 9 130 130 0 8.80000 97.4000 TD 30 1000 16 277
1992314N08141 1992 122 NI BB FORREST 1992-11-15 21:00:00 NR 8.87483 96.7450 main 175 175 P__P__________ WP301992 8.84986 96.7700 52 0 3 0 9 8.89980 96.7200 TD 27 1000 13 282
1992314N08141 1992 122 NI BB FORREST 1992-11-16 00:00:00 NR 9.05556 96.2000 1006 newdelhi main 231 231 O__OO_________ jtwc_wp WP301992 9.00000 96.1000 50 0 9.00000 96.1000 TD 25 1000 9.50000 97.0000 1006 0.00000 2 1008 12 287
1992314N08141 1992 122 NI BB FORREST 1992-11-16 03:00:00 NR 9.20300 95.6250 main 298 298 P__PP_________ WP301992 9.15739 95.4700 47 0 9.09986 95.4925 TD 27 1000 9.50051 96.2000 1005 3 1008 12 283
1992314N08141 1992 122 NI BB FORREST 1992-11-16 06:00:00 NR 9.31818 95.0637 25 1004 newdelhi main 354 354 O__OO_________ jtwc_wp WP301992 9.30000 94.9000 45 0 9.20000 94.9000 TD 30 1000 9.50000 95.5000 25 1004 1.50000 4 1008 11 281
1992314N08141 1992 122 NI BB FORREST 1992-11-16 09:00:00 NR 9.40734 94.5467 main 421 421 P__PP_________ WP301992 9.41489 94.3775 42 0 9.30740 94.3000 TD 32 997 9.49974 94.9625 25 1003 4 1007 10 278
1992314N08141 1992 122 NI BB FORREST 1992-11-16 12:00:00 NR 9.46667 94.0333 25 1002 newdelhi main 456 456 O__OO_________ jtwc_wp WP301992 9.50000 93.9000 40 0 9.40000 93.7000 TS 35 995 9.50000 94.5000 25 1002 1.50000 4 1006 10 275
1992314N08141 1992 122 NI BB FORREST 1992-11-16 15:00:00 NR 9.50235 93.5266 main 475 475 P__PP_________ WP301992 9.54988 93.4499 40 0 9.45743 93.0925 TS 37 992 9.49974 94.0375 27 1001 5 1006 10 274
1992314N08141 1992 122 NI BB FORREST 1992-11-16 18:00:00 NR 9.53333 93.0000 30 1000 newdelhi main 499 499 O__OO_________ jtwc_wp WP301992 9.60000 93.0000 40 0 9.50000 92.5000 TS 40 990 9.50000 93.5000 30 1000 2.00000 6 1006 11 274
1992314N08141 1992 122 NI BB FORREST 1992-11-16 21:00:00 NR 9.57826 92.4200 main 544 544 P__PP_________ WP301992 9.69235 92.5300 40 0 9.54238 91.9425 TS 40 990 9.50005 92.7875 32 1000 7 1007 12 275
1992314N08141 1992 122 NI BB FORREST 1992-11-17 00:00:00 NR 9.63333 91.8000 35 1000 newdelhi main 584 584 O__OO_________ jtwc_wp WP301992 9.80000 92.0000 40 0 9.60000 91.4000 TS 40 990 9.50000 92.0000 35 1000 2.50000 8 1008 13 274
1992314N08141 1992 122 NI BB FORREST 1992-11-17 03:00:00 NR 9.67508 91.1249 main 644 644 P__PP_________ WP301992 9.88508 91.3574 42 0 9.67745 90.8424 TS 42 987 9.46271 91.1749 40 998 9 1007 13 276
1992314N08141 1992 122 NI BB FORREST 1992-11-17 06:00:00 NR 9.76667 90.5000 45 996 newdelhi main 700 700 O__OO_________ jtwc_wp WP301992 10.0000 90.7000 45 0 9.80000 90.3000 TS 45 985 9.50000 90.5000 45 996 3.00000 10 1006 11 284
1992314N08141 1992 122 NI BB FORREST 1992-11-17 09:00:00 NR 9.94569 90.0216 main 748 748 P__PP_________ WP301992 10.1624 90.1199 50 0 9.96248 89.7700 TS 47 982 9.71220 90.1750 50 993 13 1006 10 297
1992314N08141 1992 122 NI BB FORREST 1992-11-17 12:00:00 NR 10.2000 89.6333 55 990 newdelhi main 804 804 O__OO_________ jtwc_wp WP301992 10.4000 89.6000 55 0 10.2000 89.3000 STS 50 980 10.0000 90.0000 55 990 3.50000 16 1006 9 306
1992314N08141 1992 122 NI BB FORREST 1992-11-17 15:00:00 NR 10.4941 89.2683 main 810 809 P__PP_________ WP301992 10.7200 89.1050 57 0 10.5124 88.9125 STS 52 977 10.2499 89.7874 60 988 19 1007 9 313
1992314N08141 1992 122 NI BB FORREST 1992-11-17 18:00:00 NR 10.8333 88.9333 65 986 newdelhi main 817 808 O__OO_________ jtwc_wp WP301992 11.1000 88.7000 60 0 10.9000 88.6000 STS 55 975 10.5000 89.5000 65 986 4.00000 22 1008 10 315
1992314N08141 1992 122 NI BB FORREST 1992-11-17 21:00:00 NR 11.1725 88.5824 main 809 809 P__PP_________ WP301992 11.4774 88.4123 60 0 11.3275 88.3200 STS 57 972 10.7127 89.0149 71 982 26 1008 10 318
1992314N08141 1992 122 NI BB FORREST 1992-11-18 00:00:00 NR 11.5667 88.2667 77 978 newdelhi main 805 801 O__OO_________ jtwc_wp WP301992 11.9000 88.2000 60 0 11.8000 88.1000 STS 60 970 11.0000 88.5000 77 978 4.50000 30 1008 10 326
1992314N08141 1992 122 NI BB FORREST 1992-11-18 03:00:00 NR 12.0292 87.9983 main 801 749 P__PP_________ WP301992 12.3775 87.9700 62 0 12.2850 87.9274 STS 62 967 11.4250 88.0975 77 977 30 1007 11 335
1992314N08141 1992 122 NI BB FORREST 1992-11-18 06:00:00 NR 12.5667 87.8000 77 976 newdelhi main 742 697 O__OO_________ jtwc_wp WP301992 12.9000 87.8000 65 1 12.8000 87.8000 T 65 965 12.0000 87.8000 77 976 4.50000 30 1006 12 344
1992314N08141 1992 122 NI BB FORREST 1992-11-18 09:00:00 NR 13.1808 87.6650 main 688 627 P__PP_________ WP301992 13.4500 87.7125 67 1 13.3425 87.6850 T 67 962 12.7499 87.5975 77 975 30 1005 13 351
1992314N08141 1992 122 NI BB FORREST 1992-11-18 12:00:00 NR 13.8000 87.6000 77 974 newdelhi main 627 583 O__OO_________ jtwc_wp WP301992 14.0000 87.7000 70 1 13.9000 87.6000 T 70 960 13.5000 87.5000 77 974 4.50000 30 1004 12 356
1992314N08141 1992 122 NI BB FORREST 1992-11-18 15:00:00 NR 14.3267 87.5799 main 583 540 P__PP_________ WP301992 14.5150 87.7275 75 1 14.4650 87.5350 T 72 957 14.0000 87.4773 77 974 30 1004 10 0
1992314N08141 1992 122 NI BB FORREST 1992-11-18 18:00:00 NR 14.8333 87.6000 77 974 newdelhi main 540 493 O__OO_________ jtwc_wp WP301992 15.0000 87.8000 80 1 15.0000 87.5000 T 75 955 14.5000 87.5000 77 974 4.50000 30 1004 11 2
1992314N08141 1992 122 NI BB FORREST 1992-11-18 21:00:00 NR 15.4108 87.6209 main 493 462 P__PP_________ WP301992 15.4650 87.8850 85 2 15.4800 87.4775 T 77 952 15.2875 87.5000 83 970 35 1005 11 4
1992314N08141 1992 122 NI BB FORREST 1992-11-19 00:00:00 NR 15.9333 87.6667 90 966 newdelhi main 462 431 O__OO_________ jtwc_wp WP301992 15.9000 88.0000 90 2 15.9000 87.5000 T 80 950 16.0000 87.5000 90 966 5.00000 40 1006 9 6
1992314N08141 1992 122 NI BB FORREST 1992-11-19 03:00:00 NR 16.2916 87.7152 main 431 408 P__PP_________ WP301992 16.3225 88.1425 95 2 16.2650 87.5775 T 80 950 16.2873 87.4255 96 959 46 1005 7 13
1992314N08141 1992 122 NI BB FORREST 1992-11-19 06:00:00 NR 16.6000 87.8333 102 952 newdelhi main 408 380 O__OO_________ jtwc_wp WP301992 16.7000 88.3000 100 3 16.6000 87.7000 T 80 950 16.5000 87.5000 102 952 5.50000 52 1004 8 28
1992314N08141 1992 122 NI BB FORREST 1992-11-19 09:00:00 NR 16.9910 88.0971 main 380 362 P__PP_________ WP301992 17.0150 88.4575 102 3 16.9575 87.8350 T 80 950 17.0006 87.9989 102 952 52 1004 9 34
1992314N08141 1992 122 NI BB FORREST 1992-11-19 12:00:00 NR 17.3667 88.3667 102 952 newdelhi main 359 341 O__OO_________ jtwc_wp WP301992 17.3000 88.6000 105 3 17.3000 88.0000 T 80 950 17.5000 88.5000 102 952 5.50000 52 1004 8 28
1992314N08141 1992 122 NI BB FORREST 1992-11-19 15:00:00 NR 17.6649 88.4769 main 339 322 P__PP_________ WP301992 17.6000 88.7076 110 3 17.6075 88.1851 T 80 950 17.7872 88.5382 102 953 52 1005 6 18
1992314N08141 1992 122 NI BB FORREST 1992-11-19 18:00:00 NR 17.9333 88.5667 102 954 newdelhi main 329 314 O__OO_________ jtwc_wp WP301992 17.9000 88.8000 115 4 17.9000 88.4000 T 80 950 18.0000 88.5000 102 954 5.50000 52 1006 6 25
1992314N08141 1992 122 NI BB FORREST 1992-11-19 21:00:00 NR 18.2217 88.7492 main 314 306 P__PP_________ WP301992 18.2075 88.8926 120 4 18.2075 88.6425 T 80 950 18.2501 88.7124 102 954 52 1006 7 34
1992314N08141 1992 122 NI BB FORREST 1992-11-20 00:00:00 NR 18.5000 88.9667 102 954 newdelhi main 314 307 O__OO_________ jtwc_wp WP301992 18.5000 89.0000 125 4 18.5000 88.9000 T 80 950 18.5000 89.0000 102 954 5.50000 52 1006 7 36
1992314N08141 1992 122 NI BB FORREST 1992-11-20 03:00:00 NR 18.7624 89.1684 main 311 292 P__PP_________ WP301992 18.7649 89.1126 122 4 18.7724 89.1426 T 77 952 18.7500 89.2501 102 955 52 1007 6 39
1992314N08141 1992 122 NI BB FORREST 1992-11-20 06:00:00 NR 19.0000 89.4000 102 956 newdelhi main 292 273 O__OO_________ jtwc_wp WP301992 19.0000 89.3000 120 4 19.0000 89.4000 T 75 955 19.0000 89.5000 102 956 5.50000 52 1008 7 46
1992314N08141 1992 122 NI BB FORREST 1992-11-20 09:00:00 NR 19.2249 89.6725 main 275 259 P__PP_________ WP301992 19.2225 89.6124 120 4 19.1650 89.6926 T 72 957 19.2873 89.7125 96 962 46 1008 7 55
1992314N08141 1992 122 NI BB FORREST 1992-11-20 12:00:00 NR 19.4000 90.0000 90 968 newdelhi main 263 248 O__OO_________ jtwc_wp WP301992 19.4000 90.0000 120 4 19.3000 90.0000 T 70 960 19.5000 90.0000 90 968 5.00000 40 1008 7 69
1992314N08141 1992 122 NI BB FORREST 1992-11-20 15:00:00 NR 19.4884 90.3977 main 248 207 P__PP_________ WP301992 19.5075 90.3927 115 4 19.4575 90.3000 T 67 962 19.5004 90.5005 90 970 40 1010 8 78
1992314N08141 1992 122 NI BB FORREST 1992-11-20 18:00:00 NR 19.5667 90.8000 90 972 newdelhi main 207 175 O__OO_________ jtwc_wp WP301992 19.6000 90.8000 110 3 19.6000 90.6000 T 65 965 19.5000 91.0000 90 972 5.00000 40 1012 7 70
1992314N08141 1992 122 NI BB FORREST 1992-11-20 21:00:00 NR 19.7331 91.1142 main 175 137 P__PP_________ WP301992 19.7349 91.1926 105 3 19.7150 90.9000 T 60 970 19.7496 91.2498 90 972 40 1012 7 61
1992314N08141 1992 122 NI BB FORREST 1992-11-21 00:00:00 NR 19.9000 91.4333 90 972 newdelhi main 137 99 O__OO_________ jtwc_wp WP301992 19.9000 91.6000 100 3 19.8000 91.2000 STS 55 975 20.0000 91.5000 90 972 5.00000 40 1012 7 69
1992314N08141 1992 122 NI BB FORREST 1992-11-21 03:00:00 NR 19.9908 91.8352 main 99 47 P__PP_________ WP301992 20.1150 92.0498 97 3 19.8574 91.4926 STS 50 980 20.0001 91.9631 67 986 25 1011 8 78
1992314N08141 1992 122 NI BB FORREST 1992-11-21 06:00:00 NR 20.0818 92.3091 45 1000 newdelhi main 47 0 O__OO_________ jtwc_wp WP301992 20.3000 92.5000 95 2 19.9000 91.8000 TS 45 985 20.0000 92.5000 45 1000 3.00000 10 1010 9 75
1992314N08141 1992 122 NI BB FORREST 1992-11-21 09:00:00 NR 20.2326 92.8119 main 0 0 P__PP_________ WP301992 20.3949 92.9226 90 2 19.9477 92.1399 TS 40 990 20.2126 93.0371 40 1000 9 1009 10 71
1992314N08141 1992 122 NI BB FORREST 1992-11-21 12:00:00 NR 20.3875 93.2750 35 1000 newdelhi main 0 0 O__OO_________ jtwc_wp WP301992 20.4000 93.3000 85 2 20.0000 92.5000 TS 35 995 20.5000 93.5000 35 1000 0.00000 8 1008 8 73
1992314N08141 1992 122 NI BB FORREST 1992-11-21 15:00:00 NR 20.4740 93.6768 main 0 0 P___P_________ WP301992 20.3299 93.6151 65 1 TS 20.7624 93.8002 25 1004 5 1009 6 89
1992314N08141 1992 122 NI BB FORREST 1992-11-21 18:00:00 NR 20.4000 93.9250 15 1008 newdelhi main 0 0 O___O_________ jtwc_wp WP301992 20.2000 93.9000 45 0 21.0000 94.0000 15 1008 0.00000 2 1010 6 131
1992314N08141 1992 122 NI BB FORREST 1992-11-21 21:00:00 NR 20.0526 94.1951 main 0 0 P_____________ WP301992 20.0526 94.1951 37 0 7 133
1992314N08141 1992 122 NI BB FORREST 1992-11-22 00:00:00 NR 19.9000 94.5000 main 0 O_____________ jtwc_wp WP301992 19.9000 94.5000 30 -1 7 118

デジタル台風データ・検索

IBTrACS Databaseについて

本データベースは、米国NOAAが公開する1842年以降の世界の熱帯低気圧のベストトラックデータアーカイブInternational Best Track Archive for Climate Stewardship (IBTrACS)を、ウェブで閲覧しやすい形式に変換したものです。

最終更新日:2021-11-26